Phelps, New York
Current Conditions -  °F | °C
As of 8:53 AM on Thursday 29 Jan 2015 (Local Time) from KPEO Reporting Station
Overcast Overcast  
Wind Chill:   Ceiling: 8500
Heat Index: 19°   Visibility: 10mi
Dew Point:   Wind: 16mph
Humidity: 50%   Direction: 210°SSW
Pressure: 30.12"   Gusts: NA
Location:  42.96°N, 77.06°W
Report Text: KPEO 291353Z AUTO 21014KT 10SM OVC085 M07/M16 A3012 RMK AO2 SLP220 T10721161
Loading
Personal Weather Stations






























Interactive Weather Map New forecast layout! Learn more

10-Day Weather Forecast

Advertisements
Track Severe Weather on mobile